createdAt,value
2023-03-21T00:01:16.529Z,2.58
2023-03-21T00:03:46.558Z,2.65
2023-03-21T00:06:16.701Z,2.88
2023-03-21T00:08:45.070Z,2.85
2023-03-21T00:11:14.204Z,3.42
2023-03-21T00:13:44.247Z,2.70
2023-03-21T00:16:23.159Z,2.70
2023-03-21T00:18:55.741Z,2.80
2023-03-21T00:24:16.948Z,2.80
2023-03-21T00:26:45.323Z,3.08
2023-03-21T00:29:14.935Z,2.95
2023-03-21T00:31:43.233Z,2.67
2023-03-21T00:36:44.955Z,2.78
2023-03-21T00:39:14.220Z,2.70
2023-03-21T00:41:43.682Z,2.80
2023-03-21T00:44:15.866Z,2.95
2023-03-21T00:46:57.392Z,2.83
2023-03-21T00:49:38.220Z,2.90
2023-03-21T00:52:17.136Z,3.00
2023-03-21T00:54:53.158Z,3.00
2023-03-21T00:57:29.325Z,3.67
2023-03-21T01:00:10.877Z,3.30
2023-03-21T01:02:43.497Z,3.30
2023-03-21T01:05:33.467Z,3.20
2023-03-21T01:08:02.925Z,3.10
2023-03-21T01:10:32.783Z,3.20
2023-03-21T01:13:01.037Z,2.63
2023-03-21T01:15:32.778Z,3.13
2023-03-21T01:18:01.173Z,3.40
2023-03-21T01:20:29.674Z,2.97
2023-03-21T01:22:57.978Z,2.78
2023-03-21T01:25:26.349Z,3.08
2023-03-21T01:27:54.792Z,2.95
2023-03-21T01:30:24.779Z,2.92
2023-03-21T01:32:54.744Z,2.90
2023-03-21T01:35:23.021Z,2.90
2023-03-21T01:37:51.861Z,3.17
2023-03-21T01:40:23.424Z,3.20
2023-03-21T01:42:57.323Z,3.22
2023-03-21T01:46:14.445Z,3.10
2023-03-21T01:49:03.341Z,3.30
2023-03-21T01:51:36.093Z,3.42
2023-03-21T01:54:08.107Z,2.88
2023-03-21T01:56:39.310Z,3.03
2023-03-21T01:59:12.770Z,3.10
2023-03-21T02:02:14.764Z,2.88
2023-03-21T02:04:58.315Z,3.28
2023-03-21T02:07:35.811Z,2.78
2023-03-21T02:10:13.340Z,3.05
2023-03-21T02:12:47.054Z,3.10
2023-03-21T02:15:16.416Z,3.03
2023-03-21T02:18:14.600Z,3.15
2023-03-21T02:21:29.488Z,3.22
2023-03-21T02:24:38.369Z,2.83
2023-03-21T02:27:14.174Z,3.53
2023-03-21T02:30:08.761Z,3.28
2023-03-21T02:33:03.797Z,3.38
2023-03-21T02:36:00.589Z,2.85
2023-03-21T02:38:38.579Z,3.03
2023-03-21T02:41:19.638Z,3.05
2023-03-21T02:43:57.300Z,3.50
2023-03-21T02:46:42.909Z,3.50
2023-03-21T02:49:21.623Z,3.63
2023-03-21T02:51:53.084Z,2.95
2023-03-21T02:54:38.234Z,3.30
2023-03-21T02:57:08.259Z,3.30
2023-03-21T02:59:44.537Z,2.90
2023-03-21T03:02:25.722Z,3.30
2023-03-21T03:04:55.580Z,3.00
2023-03-21T03:07:35.498Z,3.38
2023-03-21T03:10:28.372Z,3.08
2023-03-21T03:13:06.913Z,3.03
2023-03-21T03:15:45.786Z,3.35
2023-03-21T03:18:21.169Z,3.00
2023-03-21T03:21:00.030Z,3.38
2023-03-21T03:23:34.971Z,3.10
2023-03-21T03:26:09.727Z,3.13
2023-03-21T03:28:42.398Z,3.03
2023-03-21T03:31:21.940Z,3.17
2023-03-21T03:33:59.236Z,3.20
2023-03-21T03:36:36.964Z,3.13
2023-03-21T03:39:17.553Z,3.70
2023-03-21T03:42:10.216Z,3.22
2023-03-21T03:44:46.704Z,3.10
2023-03-21T03:47:32.398Z,2.80
2023-03-21T03:50:10.276Z,3.10
2023-03-21T03:52:55.314Z,3.00
2023-03-21T03:55:28.272Z,2.78
2023-03-21T03:58:06.378Z,3.15
2023-03-21T04:00:37.217Z,3.20
2023-03-21T04:03:07.316Z,3.10
2023-03-21T04:05:36.598Z,2.97
2023-03-21T04:08:06.627Z,3.10
2023-03-21T04:10:42.058Z,2.63
2023-03-21T04:13:12.894Z,2.85
2023-03-21T04:15:46.883Z,2.70
2023-03-21T04:18:17.884Z,3.03
2023-03-21T04:20:48.697Z,3.15
2023-03-21T04:23:18.998Z,2.92
2023-03-21T04:25:56.442Z,2.55
2023-03-21T04:28:36.184Z,2.58
2023-03-21T04:31:26.466Z,2.40
2023-03-21T04:34:09.971Z,2.40
2023-03-21T04:36:44.604Z,2.92
2023-03-21T04:39:15.169Z,2.90
2023-03-21T04:41:47.736Z,2.80
2023-03-21T04:44:19.360Z,3.22
2023-03-21T04:46:48.369Z,3.25
2023-03-21T04:49:16.675Z,3.40
2023-03-21T04:51:46.276Z,2.83
2023-03-21T04:54:19.157Z,2.75
2023-03-21T04:56:47.463Z,3.00
2023-03-21T04:59:18.014Z,2.90
2023-03-21T05:01:46.975Z,3.22
2023-03-21T05:04:15.942Z,2.90
2023-03-21T05:06:45.186Z,3.60
2023-03-21T05:09:14.280Z,3.03
2023-03-21T05:11:42.949Z,2.80
2023-03-21T05:14:19.489Z,2.78
2023-03-21T05:16:53.627Z,2.90
2023-03-21T05:19:25.020Z,2.97
2023-03-21T05:21:53.897Z,3.00
2023-03-21T05:24:26.485Z,3.28
2023-03-21T05:26:56.318Z,2.90
2023-03-21T05:29:30.841Z,2.55
2023-03-21T05:32:03.443Z,2.92
2023-03-21T05:34:32.410Z,3.20
2023-03-21T05:37:02.163Z,3.13
2023-03-21T05:39:49.408Z,3.10
2023-03-21T05:42:27.246Z,2.88
2023-03-21T05:44:57.692Z,3.50
2023-03-21T05:47:30.810Z,2.90
2023-03-21T05:50:01.699Z,3.22
2023-03-21T05:52:31.589Z,3.28
2023-03-21T05:55:00.880Z,3.03
2023-03-21T05:57:29.755Z,3.25
2023-03-21T06:00:08.549Z,3.17
2023-03-21T06:02:45.903Z,3.00
2023-03-21T06:05:43.468Z,2.88
2023-03-21T06:08:19.069Z,3.30
2023-03-21T06:10:48.097Z,3.60
2023-03-21T06:13:16.925Z,3.95
2023-03-21T06:15:47.002Z,3.65
2023-03-21T06:18:20.074Z,3.10
2023-03-21T06:20:57.533Z,3.10
2023-03-21T06:23:25.954Z,3.05
2023-03-21T06:25:54.998Z,2.95
2023-03-21T06:28:26.869Z,3.05
2023-03-21T06:30:56.754Z,3.40
2023-03-21T06:33:27.395Z,3.47
2023-03-21T06:35:57.673Z,3.55
2023-03-21T06:38:27.169Z,3.25
2023-03-21T06:40:55.596Z,3.40
2023-03-21T06:43:26.718Z,3.38
2023-03-21T06:45:56.445Z,3.80
2023-03-21T06:48:24.938Z,3.90
2023-03-21T06:50:54.495Z,4.55
2023-03-21T06:53:27.350Z,5.03
2023-03-21T06:56:15.973Z,4.50
2023-03-21T06:58:46.644Z,4.63
2023-03-21T07:01:32.110Z,4.90
2023-03-21T07:04:06.323Z,4.72
2023-03-21T07:06:34.960Z,6.32
2023-03-21T07:09:05.488Z,5.47
2023-03-21T07:14:06.529Z,4.30
2023-03-21T07:16:36.490Z,4.53
2023-03-21T07:19:04.791Z,4.35
2023-03-21T07:21:33.289Z,3.92
2023-03-21T07:24:01.809Z,4.43
2023-03-21T07:26:30.144Z,4.00
2023-03-21T07:29:00.131Z,3.92
2023-03-21T07:31:29.651Z,3.88
2023-03-21T07:33:59.363Z,4.10
2023-03-21T07:36:28.189Z,3.92
2023-03-21T07:38:56.492Z,4.38
2023-03-21T07:41:26.089Z,4.38
2023-03-21T07:43:54.396Z,4.28
2023-03-21T07:46:22.834Z,4.10
2023-03-21T07:48:51.355Z,4.43
2023-03-21T07:51:20.986Z,4.38
2023-03-21T07:53:49.540Z,4.03
2023-03-21T07:56:17.813Z,4.15
2023-03-21T07:58:46.107Z,4.50
2023-03-21T08:01:14.357Z,4.47
2023-03-21T08:03:43.500Z,4.38
2023-03-21T08:06:12.300Z,4.10
2023-03-21T08:08:41.998Z,4.50
2023-03-21T08:11:11.864Z,4.60
2023-03-21T08:13:40.209Z,4.55
2023-03-21T08:16:09.869Z,4.57
2023-03-21T08:18:38.335Z,4.60
2023-03-21T08:21:09.350Z,4.72
2023-03-21T08:23:38.118Z,4.65
2023-03-21T08:26:09.401Z,4.68
2023-03-21T08:28:39.452Z,4.70
2023-03-21T08:31:09.365Z,4.40
2023-03-21T08:33:38.331Z,4.60
2023-03-21T08:36:08.090Z,4.68
2023-03-21T08:38:38.402Z,5.55
2023-03-21T08:41:08.624Z,5.63
2023-03-21T08:43:36.910Z,5.57
2023-03-21T08:46:05.448Z,5.07
2023-03-21T08:48:34.049Z,5.25
2023-03-21T08:51:02.333Z,4.63
2023-03-21T08:53:30.741Z,5.00
2023-03-21T08:55:59.055Z,4.80
2023-03-21T08:58:28.698Z,5.40
2023-03-21T09:00:57.034Z,6.18
2023-03-21T09:03:27.380Z,5.05
2023-03-21T09:05:55.943Z,5.35
2023-03-21T09:08:24.576Z,5.72
2023-03-21T09:10:54.637Z,5.00
2023-03-21T09:13:23.309Z,4.95
2023-03-21T09:15:54.168Z,4.80
2023-03-21T09:18:38.896Z,4.78
2023-03-21T09:21:12.789Z,4.43
2023-03-21T09:23:41.401Z,4.57
2023-03-21T09:26:10.641Z,4.05
2023-03-21T09:28:39.255Z,4.07
2023-03-21T09:31:11.394Z,3.58
2023-03-21T09:33:41.455Z,4.20
2023-03-21T09:36:12.998Z,3.63
2023-03-21T09:38:43.106Z,3.63
2023-03-21T09:41:22.320Z,4.18
2023-03-21T09:44:08.200Z,3.58
2023-03-21T09:46:46.906Z,3.10
2023-03-21T09:49:20.425Z,3.38
2023-03-21T09:51:52.950Z,3.60
2023-03-21T09:54:27.348Z,3.92
2023-03-21T09:56:58.862Z,3.40
2023-03-21T09:59:33.584Z,3.80
2023-03-21T10:02:05.686Z,3.63
2023-03-21T10:04:34.118Z,3.35
2023-03-21T10:07:04.047Z,3.22
2023-03-21T10:09:33.435Z,2.90
2023-03-21T10:12:06.402Z,3.55
2023-03-21T10:14:37.428Z,3.10
2023-03-21T10:17:18.089Z,3.58
2023-03-21T10:19:48.287Z,3.38
2023-03-21T10:22:16.515Z,3.25
2023-03-21T10:24:44.913Z,3.20
2023-03-21T10:27:14.629Z,3.35
2023-03-21T10:29:45.435Z,3.47
2023-03-21T10:32:18.006Z,3.00
2023-03-21T10:34:52.170Z,3.30
2023-03-21T10:37:20.791Z,3.38
2023-03-21T10:39:52.223Z,2.80
2023-03-21T10:42:23.954Z,2.78
2023-03-21T10:47:24.367Z,2.50
2023-03-21T10:50:09.941Z,3.13
2023-03-21T10:52:43.516Z,2.67
2023-03-21T10:55:22.881Z,2.78
2023-03-21T10:57:58.851Z,2.28
2023-03-21T11:00:31.408Z,2.63
2023-03-21T11:03:01.680Z,2.50
2023-03-21T11:05:37.985Z,2.78
2023-03-21T11:08:08.249Z,2.92
2023-03-21T11:11:10.969Z,2.75
2023-03-21T11:13:41.913Z,2.63
2023-03-21T11:16:13.252Z,2.85
2023-03-21T11:18:45.617Z,3.08
2023-03-21T11:21:15.740Z,3.17
2023-03-21T11:23:48.019Z,2.67
2023-03-21T11:26:24.144Z,3.38
2023-03-21T11:36:33.848Z,2.95
2023-03-21T11:39:13.763Z,3.33
2023-03-21T11:41:42.314Z,2.95
2023-03-21T11:44:26.644Z,3.08
2023-03-21T11:46:55.730Z,2.90
2023-03-21T11:49:24.980Z,3.15
2023-03-21T11:52:13.963Z,2.70
2023-03-21T11:54:58.229Z,2.85
2023-03-21T11:57:38.109Z,2.58
2023-03-21T12:00:17.880Z,2.72
2023-03-21T12:03:23.870Z,2.63
2023-03-21T12:05:55.534Z,3.00
2023-03-21T12:11:09.742Z,2.63
2023-03-21T12:13:48.010Z,2.50
2023-03-21T12:16:50.392Z,2.55
2023-03-21T12:19:38.376Z,2.30
2023-03-21T12:22:14.339Z,2.50
2023-03-21T12:24:52.044Z,2.50
2023-03-21T12:27:30.145Z,2.40
2023-03-21T12:30:12.746Z,2.40
2023-03-21T12:33:04.474Z,2.28
2023-03-21T12:35:44.650Z,2.58
2023-03-21T12:38:18.963Z,2.30
2023-03-21T12:41:21.706Z,2.10
2023-03-21T12:43:55.518Z,2.30
2023-03-21T12:46:28.572Z,2.13
2023-03-21T12:49:01.457Z,2.25
2023-03-21T12:51:33.034Z,2.40
2023-03-21T12:56:36.464Z,2.05
2023-03-21T12:59:09.672Z,2.10
2023-03-21T13:01:40.880Z,2.17
2023-03-21T13:04:32.934Z,2.15
2023-03-21T13:07:04.766Z,1.77
2023-03-21T13:09:38.456Z,1.88
2023-03-21T13:12:21.709Z,2.25
2023-03-21T13:15:07.928Z,1.60
2023-03-21T13:17:45.619Z,1.60
2023-03-21T13:20:21.653Z,1.80
2023-03-21T13:22:50.074Z,1.35
2023-03-21T13:25:20.893Z,1.48
2023-03-21T13:27:55.501Z,1.92
2023-03-21T13:30:26.446Z,4.10
2023-03-21T13:33:05.724Z,2.80
2023-03-21T13:35:41.190Z,3.17
2023-03-21T13:38:16.392Z,2.70
2023-03-21T13:40:49.036Z,2.80
2023-03-21T13:43:41.364Z,2.60
2023-03-21T13:46:11.658Z,2.97
2023-03-21T13:49:00.328Z,2.60
2023-03-21T13:51:47.273Z,2.83
2023-03-21T13:54:24.196Z,2.28
2023-03-21T13:57:00.695Z,2.45
2023-03-21T13:59:43.272Z,2.33
2023-03-21T14:02:36.269Z,2.42
2023-03-21T14:05:08.167Z,2.00
2023-03-21T14:07:41.441Z,2.30
2023-03-21T14:10:21.437Z,2.00
2023-03-21T14:12:50.547Z,2.40
2023-03-21T14:15:23.225Z,2.28
2023-03-21T14:17:52.738Z,2.28
2023-03-21T14:20:23.489Z,2.20
2023-03-21T14:22:51.893Z,2.60
2023-03-21T14:25:23.239Z,2.35
2023-03-21T14:27:56.517Z,2.53
2023-03-21T14:30:28.851Z,2.45
2023-03-21T14:32:59.414Z,2.45
2023-03-21T14:35:31.320Z,2.25
2023-03-21T14:38:02.957Z,2.22
2023-03-21T14:43:05.019Z,1.90
2023-03-21T14:45:37.644Z,2.00
2023-03-21T14:48:07.668Z,2.03
2023-03-21T14:50:43.844Z,1.98
2023-03-21T14:53:16.422Z,1.70
2023-03-21T14:55:47.192Z,2.17
2023-03-21T14:58:18.008Z,2.00
2023-03-21T15:00:50.658Z,1.90
2023-03-21T15:03:21.225Z,2.20
2023-03-21T15:05:49.754Z,2.00
2023-03-21T15:08:20.278Z,2.25
2023-03-21T15:11:06.825Z,1.90
2023-03-21T15:13:38.816Z,2.20
2023-03-21T15:16:14.966Z,1.98
2023-03-21T15:18:44.513Z,1.95
2023-03-21T15:21:18.365Z,1.70
2023-03-21T15:23:48.343Z,2.10
2023-03-21T15:26:18.168Z,2.33
2023-03-21T15:28:48.189Z,2.22
2023-03-21T15:31:20.536Z,2.20
2023-03-21T15:33:49.256Z,2.15
2023-03-21T15:36:22.494Z,1.90
2023-03-21T15:38:51.966Z,2.28
2023-03-21T15:41:31.503Z,1.80
2023-03-21T15:44:07.274Z,2.13
2023-03-21T15:46:42.728Z,2.10
2023-03-21T15:49:19.078Z,2.33
2023-03-21T15:51:50.579Z,2.10
2023-03-21T15:54:24.705Z,2.50
2023-03-21T15:56:56.068Z,2.38
2023-03-21T15:59:28.595Z,2.17
2023-03-21T16:01:59.013Z,2.65
2023-03-21T16:04:27.501Z,2.35
2023-03-21T16:07:00.227Z,2.20
2023-03-21T16:09:29.298Z,2.58
2023-03-21T16:11:58.986Z,2.70
2023-03-21T16:14:28.650Z,2.72
2023-03-21T16:16:59.095Z,3.33
2023-03-21T16:19:29.785Z,3.30
2023-03-21T16:21:58.067Z,3.10
2023-03-21T16:24:26.276Z,3.00
2023-03-21T16:26:56.889Z,3.25
2023-03-21T16:29:25.236Z,3.10
2023-03-21T16:31:53.524Z,2.80
2023-03-21T16:34:23.172Z,3.05
2023-03-21T16:36:51.362Z,3.10
2023-03-21T16:39:21.652Z,2.72
2023-03-21T16:41:50.740Z,3.33
2023-03-21T16:44:19.484Z,3.22
2023-03-21T16:46:48.284Z,2.70
2023-03-21T16:49:20.505Z,3.00
2023-03-21T16:51:50.139Z,2.75
2023-03-21T16:54:18.859Z,2.58
2023-03-21T16:56:50.522Z,3.05
2023-03-21T17:01:48.513Z,13.48
2023-03-21T17:04:18.482Z,246.45
2023-03-21T17:06:49.252Z,212.95
2023-03-21T17:09:21.299Z,258.83
2023-03-21T17:11:50.088Z,211.30
2023-03-21T17:14:18.795Z,202.90
2023-03-21T17:16:47.660Z,164.88
2023-03-21T17:19:18.109Z,138.13
2023-03-21T17:21:47.051Z,127.82
2023-03-21T17:24:15.760Z,78.95
2023-03-21T17:26:45.405Z,71.15
2023-03-21T17:29:15.383Z,78.10
2023-03-21T17:31:47.270Z,79.47
2023-03-21T17:34:15.674Z,78.90
2023-03-21T17:36:46.236Z,80.05
2023-03-21T17:39:19.262Z,83.82
2023-03-21T17:41:49.060Z,64.07
2023-03-21T17:44:17.384Z,61.42
2023-03-21T17:46:46.040Z,58.92
2023-03-21T17:49:15.875Z,55.47
2023-03-21T17:51:46.897Z,51.90
2023-03-21T17:54:15.628Z,48.20
2023-03-21T17:56:44.009Z,45.15
2023-03-21T17:59:15.069Z,41.33
2023-03-21T18:01:43.892Z,42.80
2023-03-21T18:04:12.180Z,38.55
2023-03-21T18:06:40.716Z,34.50
2023-03-21T18:09:11.757Z,34.92
2023-03-21T18:11:41.709Z,31.77
2023-03-21T18:17:05.962Z,31.42
2023-03-21T18:19:39.019Z,27.30
2023-03-21T18:22:07.455Z,26.90
2023-03-21T18:24:36.117Z,26.42
2023-03-21T18:27:04.658Z,25.27
2023-03-21T18:30:19.778Z,25.10
2023-03-21T18:32:23.165Z,23.70
2023-03-21T18:34:51.720Z,20.88
2023-03-21T18:37:20.852Z,19.77
2023-03-21T18:39:50.309Z,16.92
2023-03-21T18:42:19.778Z,14.85
2023-03-21T18:44:53.587Z,14.98
2023-03-21T18:47:22.901Z,11.35
2023-03-21T18:52:41.443Z,9.82
2023-03-21T18:55:10.875Z,9.57
2023-03-21T18:57:40.956Z,8.50
2023-03-21T19:00:13.802Z,8.45
2023-03-21T19:02:47.032Z,7.32
2023-03-21T19:05:17.563Z,7.30
2023-03-21T19:07:46.538Z,6.38
2023-03-21T19:10:18.954Z,6.07
2023-03-21T19:12:48.252Z,7.10
2023-03-21T19:15:19.951Z,7.38
2023-03-21T19:20:37.878Z,6.70
2023-03-21T19:23:08.216Z,6.15
2023-03-21T19:25:38.010Z,6.63
2023-03-21T19:28:06.661Z,6.40
2023-03-21T19:30:36.788Z,6.32
2023-03-21T19:33:06.471Z,6.38
2023-03-21T19:35:37.295Z,5.95
2023-03-21T19:38:06.171Z,5.30
2023-03-21T19:40:34.954Z,5.55
2023-03-21T19:43:18.575Z,5.63
2023-03-21T19:45:53.755Z,5.78
2023-03-21T19:48:23.420Z,5.75
2023-03-21T19:51:24.392Z,5.25
2023-03-21T19:53:40.598Z,5.28
2023-03-21T19:56:20.701Z,5.10
2023-03-21T19:58:51.662Z,5.30
2023-03-21T20:01:21.851Z,5.40
2023-03-21T20:03:50.249Z,5.90
2023-03-21T20:06:19.031Z,6.05
2023-03-21T20:09:27.696Z,6.47
2023-03-21T20:11:36.408Z,6.05
2023-03-21T20:14:05.413Z,5.85
2023-03-21T20:16:36.827Z,5.63
2023-03-21T20:21:44.434Z,6.25
2023-03-21T20:24:16.878Z,38.13
2023-03-21T20:26:45.815Z,128.52
2023-03-21T20:32:05.117Z,194.98
2023-03-21T20:34:33.700Z,156.95
2023-03-21T20:37:03.197Z,116.35
2023-03-21T20:39:31.822Z,147.45
2023-03-21T20:42:00.161Z,205.88
2023-03-21T20:44:51.914Z,183.20
2023-03-21T20:47:18.729Z,244.88
2023-03-21T20:49:49.397Z,181.60
2023-03-21T20:55:09.096Z,119.50
2023-03-21T20:57:38.755Z,92.18
2023-03-21T21:00:14.865Z,62.60
2023-03-21T21:02:45.882Z,64.07
2023-03-21T21:05:25.801Z,68.43
2023-03-21T21:07:56.686Z,83.00
2023-03-21T21:10:25.963Z,99.72
2023-03-21T21:12:54.457Z,96.80
2023-03-21T21:15:22.701Z,72.90
2023-03-21T21:18:06.447Z,55.95
2023-03-21T21:20:35.869Z,42.28
2023-03-21T21:23:04.273Z,33.53
2023-03-21T21:25:34.022Z,27.17
2023-03-21T21:28:02.717Z,18.70
2023-03-21T21:30:31.694Z,15.88
2023-03-21T21:33:01.757Z,13.45
2023-03-21T21:35:30.278Z,10.10
2023-03-21T21:37:58.544Z,9.43
2023-03-21T21:40:26.821Z,8.77
2023-03-21T21:42:55.225Z,8.15
2023-03-21T21:45:23.464Z,7.50
2023-03-21T21:47:51.967Z,7.00
2023-03-21T21:50:22.491Z,6.68
2023-03-21T21:52:54.329Z,6.47
2023-03-21T21:55:23.225Z,6.45
2023-03-21T21:57:53.105Z,5.95
2023-03-21T22:00:21.977Z,6.07
2023-03-21T22:02:50.611Z,5.70
2023-03-21T22:05:19.412Z,5.97
2023-03-21T22:07:49.807Z,5.80
2023-03-21T22:10:18.234Z,5.38
2023-03-21T22:12:46.707Z,5.68
2023-03-21T22:15:18.015Z,5.20
2023-03-21T22:17:46.999Z,5.65
2023-03-21T22:20:18.023Z,4.97
2023-03-21T22:22:48.312Z,4.10
2023-03-21T22:25:17.941Z,5.63
2023-03-21T22:27:47.244Z,4.97
2023-03-21T22:30:17.391Z,5.20
2023-03-21T22:32:51.499Z,5.55
2023-03-21T22:35:24.939Z,6.47
2023-03-21T22:37:54.580Z,6.65
2023-03-21T22:40:22.992Z,6.18
2023-03-21T22:42:51.438Z,5.47
2023-03-21T22:45:19.948Z,6.10
2023-03-21T22:47:48.517Z,5.20
2023-03-21T22:50:16.824Z,5.65
2023-03-21T22:52:45.293Z,6.13
2023-03-21T22:55:14.961Z,4.90
2023-03-21T22:57:43.274Z,6.22
2023-03-21T23:00:13.721Z,5.15
2023-03-21T23:02:42.522Z,5.10
2023-03-21T23:05:12.261Z,4.78
2023-03-21T23:07:40.588Z,5.05
2023-03-21T23:10:12.111Z,5.47
2023-03-21T23:15:11.281Z,4.82
2023-03-21T23:17:39.637Z,5.10
2023-03-21T23:20:09.838Z,5.25
2023-03-21T23:22:38.635Z,5.25
2023-03-21T23:25:07.882Z,4.88
2023-03-21T23:27:37.039Z,4.93
2023-03-21T23:30:08.536Z,5.20
2023-03-21T23:35:05.855Z,4.68
2023-03-21T23:37:34.221Z,4.75
2023-03-21T23:40:02.573Z,4.72
2023-03-21T23:42:31.209Z,4.75
2023-03-21T23:44:59.545Z,4.95
2023-03-21T23:47:30.945Z,4.97
2023-03-21T23:49:59.381Z,4.22
2023-03-21T23:52:27.654Z,5.65
2023-03-21T23:54:55.937Z,4.45
2023-03-21T23:57:24.216Z,4.35
2023-03-21T23:59:56.058Z,5.22
